Terminal Aerodrome Forecast
Issued by NWS

Home | Current Version | Previous Version | Text Only | Print | Product List | Glossary On
Versions: 1 2 3 4 5 6 7 8 9 10 11 12 13 14
000
FTUS45 KABQ 241729
TAFAEG
TAF
KAEG 241729Z 2418/2518 28010KT P6SM VCSH SCT070 BKN110
     FM242000 30013G20KT P6SM VCTS SCT070CB BKN120
     FM242200 34015KT P6SM VCSH SCT070 BKN130
     FM250200 02008KT P6SM FEW090 SCT150
     FM251200 11006KT P6SM SCT090=

USA.gov is the U.S. government's official web portal to all federal, state and local government web resources and services.